sensor_id;sensor_type;location;lat;lon;timestamp;pressure;altitude;pressure_sealevel;temperature;humidity
56176;BME280;63065;51.082;17.016;2023-03-04T00:01:13;100502.52;;;3.83;44.71
56176;BME280;63065;51.082;17.016;2023-03-04T00:03:39;100498.51;;;4.00;44.73
56176;BME280;63065;51.082;17.016;2023-03-04T00:06:04;100494.78;;;4.05;44.79
56176;BME280;63065;51.082;17.016;2023-03-04T00:08:29;100485.44;;;4.13;44.65
56176;BME280;63065;51.082;17.016;2023-03-04T00:10:55;100484.00;;;3.15;45.74
56176;BME280;63065;51.082;17.016;2023-03-04T00:13:20;100481.99;;;4.24;44.07
56176;BME280;63065;51.082;17.016;2023-03-04T00:15:46;100474.39;;;4.32;43.69
56176;BME280;63065;51.082;17.016;2023-03-04T00:18:12;100477.76;;;3.92;44.44
56176;BME280;63065;51.082;17.016;2023-03-04T00:20:37;100470.34;;;4.39;43.60
56176;BME280;63065;51.082;17.016;2023-03-04T00:23:03;100465.68;;;4.16;43.59
56176;BME280;63065;51.082;17.016;2023-03-04T00:25:28;100462.35;;;4.58;43.30
56176;BME280;63065;51.082;17.016;2023-03-04T00:27:54;100459.95;;;3.94;44.00
56176;BME280;63065;51.082;17.016;2023-03-04T00:30:20;100454.85;;;4.20;43.78
56176;BME280;63065;51.082;17.016;2023-03-04T00:32:46;100453.61;;;3.97;44.48
56176;BME280;63065;51.082;17.016;2023-03-04T00:35:11;100442.98;;;3.64;44.52
56176;BME280;63065;51.082;17.016;2023-03-04T00:37:36;100442.06;;;3.91;44.20
56176;BME280;63065;51.082;17.016;2023-03-04T00:40:01;100434.26;;;3.38;45.22
56176;BME280;63065;51.082;17.016;2023-03-04T00:42:27;100427.34;;;3.84;44.13
56176;BME280;63065;51.082;17.016;2023-03-04T00:44:52;100431.76;;;3.18;45.31
56176;BME280;63065;51.082;17.016;2023-03-04T00:47:22;100427.85;;;3.56;44.74
56176;BME280;63065;51.082;17.016;2023-03-04T00:49:43;100427.99;;;4.11;43.50
56176;BME280;63065;51.082;17.016;2023-03-04T00:52:09;100421.21;;;3.93;44.41
56176;BME280;63065;51.082;17.016;2023-03-04T00:54:36;100415.66;;;3.23;46.07
56176;BME280;63065;51.082;17.016;2023-03-04T00:57:00;100415.85;;;3.64;45.77
56176;BME280;63065;51.082;17.016;2023-03-04T00:59:26;100408.22;;;3.65;45.03
56176;BME280;63065;51.082;17.016;2023-03-04T01:01:51;100402.02;;;3.32;45.33
56176;BME280;63065;51.082;17.016;2023-03-04T01:04:16;100400.24;;;4.36;43.79
56176;BME280;63065;51.082;17.016;2023-03-04T01:06:41;100389.89;;;4.42;43.79
56176;BME280;63065;51.082;17.016;2023-03-04T01:09:07;100397.35;;;4.18;44.30
56176;BME280;63065;51.082;17.016;2023-03-04T01:11:33;100398.26;;;4.29;44.17
56176;BME280;63065;51.082;17.016;2023-03-04T01:13:58;100398.34;;;3.87;44.39
56176;BME280;63065;51.082;17.016;2023-03-04T01:16:23;100399.40;;;4.01;44.55
56176;BME280;63065;51.082;17.016;2023-03-04T01:18:48;100395.27;;;4.01;44.76
56176;BME280;63065;51.082;17.016;2023-03-04T01:21:14;100384.50;;;3.64;44.85
56176;BME280;63065;51.082;17.016;2023-03-04T01:23:39;100387.61;;;3.00;45.66
56176;BME280;63065;51.082;17.016;2023-03-04T01:26:04;100379.10;;;3.39;45.92
56176;BME280;63065;51.082;17.016;2023-03-04T01:28:29;100373.64;;;3.07;46.06
56176;BME280;63065;51.082;17.016;2023-03-04T01:30:55;100363.35;;;3.41;46.12
56176;BME280;63065;51.082;17.016;2023-03-04T01:33:21;100361.54;;;3.28;46.10
56176;BME280;63065;51.082;17.016;2023-03-04T01:35:46;100367.90;;;3.27;46.06
56176;BME280;63065;51.082;17.016;2023-03-04T01:38:11;100356.74;;;3.38;45.88
56176;BME280;63065;51.082;17.016;2023-03-04T01:40:37;100355.96;;;3.77;44.96
56176;BME280;63065;51.082;17.016;2023-03-04T01:43:02;100353.34;;;3.34;44.93
56176;BME280;63065;51.082;17.016;2023-03-04T01:45:28;100349.70;;;3.43;45.05
56176;BME280;63065;51.082;17.016;2023-03-04T01:47:53;100343.82;;;3.41;44.91
56176;BME280;63065;51.082;17.016;2023-03-04T01:50:21;100345.00;;;4.05;44.15
56176;BME280;63065;51.082;17.016;2023-03-04T01:52:43;100333.92;;;4.15;43.66
56176;BME280;63065;51.082;17.016;2023-03-04T01:55:15;100337.86;;;4.14;43.62
56176;BME280;63065;51.082;17.016;2023-03-04T01:57:40;100326.06;;;3.72;44.09
56176;BME280;63065;51.082;17.016;2023-03-04T02:00:10;100322.46;;;3.90;44.00
56176;BME280;63065;51.082;17.016;2023-03-04T02:02:25;100319.52;;;4.04;43.97
56176;BME280;63065;51.082;17.016;2023-03-04T02:04:51;100315.60;;;4.23;42.99
56176;BME280;63065;51.082;17.016;2023-03-04T02:07:16;100316.53;;;3.68;43.65
56176;BME280;63065;51.082;17.016;2023-03-04T02:09:42;100310.35;;;3.85;43.54
56176;BME280;63065;51.082;17.016;2023-03-04T02:12:08;100317.63;;;4.29;43.11
56176;BME280;63065;51.082;17.016;2023-03-04T02:14:33;100323.77;;;3.52;43.99
56176;BME280;63065;51.082;17.016;2023-03-04T02:16:59;100322.97;;;3.81;43.22
56176;BME280;63065;51.082;17.016;2023-03-04T02:19:36;100319.90;;;4.36;42.87
56176;BME280;63065;51.082;17.016;2023-03-04T02:21:51;100321.83;;;4.42;42.18
56176;BME280;63065;51.082;17.016;2023-03-04T02:24:21;100328.31;;;3.89;43.07
56176;BME280;63065;51.082;17.016;2023-03-04T02:26:42;100326.18;;;3.34;43.93
56176;BME280;63065;51.082;17.016;2023-03-04T02:29:08;100329.59;;;4.09;43.45
56176;BME280;63065;51.082;17.016;2023-03-04T02:31:34;100321.79;;;3.69;43.89
56176;BME280;63065;51.082;17.016;2023-03-04T02:33:59;100326.67;;;3.80;43.38
56176;BME280;63065;51.082;17.016;2023-03-04T02:36:23;100325.74;;;4.01;43.24
56176;BME280;63065;51.082;17.016;2023-03-04T02:38:48;100318.93;;;3.29;44.05
56176;BME280;63065;51.082;17.016;2023-03-04T02:41:16;100315.04;;;3.76;43.70
56176;BME280;63065;51.082;17.016;2023-03-04T02:43:39;100314.20;;;3.68;43.44
56176;BME280;63065;51.082;17.016;2023-03-04T02:46:04;100311.69;;;3.61;43.81
56176;BME280;63065;51.082;17.016;2023-03-04T02:48:30;100305.11;;;3.22;44.34
56176;BME280;63065;51.082;17.016;2023-03-04T02:50:55;100301.32;;;3.23;44.04
56176;BME280;63065;51.082;17.016;2023-03-04T02:53:22;100301.10;;;2.86;45.13
56176;BME280;63065;51.082;17.016;2023-03-04T02:55:47;100292.95;;;3.08;44.96
56176;BME280;63065;51.082;17.016;2023-03-04T02:58:13;100291.37;;;2.87;44.98
56176;BME280;63065;51.082;17.016;2023-03-04T03:00:38;100295.43;;;2.63;44.91
56176;BME280;63065;51.082;17.016;2023-03-04T03:03:02;100289.44;;;3.67;44.05
56176;BME280;63065;51.082;17.016;2023-03-04T03:05:30;100277.46;;;3.84;42.66
56176;BME280;63065;51.082;17.016;2023-03-04T03:07:52;100281.45;;;3.11;43.75
56176;BME280;63065;51.082;17.016;2023-03-04T03:10:18;100289.64;;;3.76;43.08
56176;BME280;63065;51.082;17.016;2023-03-04T03:12:43;100282.63;;;4.23;42.67
56176;BME280;63065;51.082;17.016;2023-03-04T03:15:09;100283.87;;;4.15;42.62
56176;BME280;63065;51.082;17.016;2023-03-04T03:17:34;100281.74;;;3.85;42.83
56176;BME280;63065;51.082;17.016;2023-03-04T03:19:59;100288.10;;;3.50;43.69
56176;BME280;63065;51.082;17.016;2023-03-04T03:22:24;100281.89;;;3.40;43.54
56176;BME280;63065;51.082;17.016;2023-03-04T03:24:50;100275.89;;;3.57;43.25
56176;BME280;63065;51.082;17.016;2023-03-04T03:27:15;100273.94;;;4.14;42.68
56176;BME280;63065;51.082;17.016;2023-03-04T03:29:41;100271.15;;;4.29;42.30
56176;BME280;63065;51.082;17.016;2023-03-04T03:32:07;100274.05;;;3.79;43.05
56176;BME280;63065;51.082;17.016;2023-03-04T03:34:32;100270.36;;;2.81;44.31
56176;BME280;63065;51.082;17.016;2023-03-04T03:36:57;100274.34;;;2.19;46.13
56176;BME280;63065;51.082;17.016;2023-03-04T03:39:22;100267.44;;;3.77;43.90
56176;BME280;63065;51.082;17.016;2023-03-04T03:41:48;100271.40;;;3.47;43.84
56176;BME280;63065;51.082;17.016;2023-03-04T03:44:14;100275.18;;;3.04;43.96
56176;BME280;63065;51.082;17.016;2023-03-04T03:46:39;100265.73;;;3.97;42.64
56176;BME280;63065;51.082;17.016;2023-03-04T03:49:05;100276.93;;;4.14;41.93
56176;BME280;63065;51.082;17.016;2023-03-04T03:51:31;100267.85;;;3.54;42.68
56176;BME280;63065;51.082;17.016;2023-03-04T03:53:57;100269.03;;;3.46;42.65
56176;BME280;63065;51.082;17.016;2023-03-04T03:56:22;100262.81;;;3.57;42.96
56176;BME280;63065;51.082;17.016;2023-03-04T03:58:48;100257.59;;;3.70;43.54
56176;BME280;63065;51.082;17.016;2023-03-04T04:01:13;100244.63;;;4.39;42.49
56176;BME280;63065;51.082;17.016;2023-03-04T04:03:39;100245.40;;;3.90;42.32
56176;BME280;63065;51.082;17.016;2023-03-04T04:06:05;100250.70;;;4.02;42.33
56176;BME280;63065;51.082;17.016;2023-03-04T04:08:30;100258.92;;;2.66;44.27
56176;BME280;63065;51.082;17.016;2023-03-04T04:10:56;100250.49;;;3.63;43.35
56176;BME280;63065;51.082;17.016;2023-03-04T04:13:21;100244.73;;;3.71;43.13
56176;BME280;63065;51.082;17.016;2023-03-04T04:15:46;100244.55;;;4.05;42.11
56176;BME280;63065;51.082;17.016;2023-03-04T04:18:12;100245.29;;;4.32;41.90
56176;BME280;63065;51.082;17.016;2023-03-04T04:20:37;100247.57;;;4.53;42.00
56176;BME280;63065;51.082;17.016;2023-03-04T04:23:03;100250.41;;;4.19;42.06
56176;BME280;63065;51.082;17.016;2023-03-04T04:25:29;100245.22;;;3.66;42.65
56176;BME280;63065;51.082;17.016;2023-03-04T04:27:54;100240.59;;;4.39;41.31
56176;BME280;63065;51.082;17.016;2023-03-04T04:30:19;100242.38;;;4.39;41.19
56176;BME280;63065;51.082;17.016;2023-03-04T04:32:44;100246.88;;;3.96;42.46
56176;BME280;63065;51.082;17.016;2023-03-04T04:35:10;100242.96;;;3.78;42.91
56176;BME280;63065;51.082;17.016;2023-03-04T04:37:36;100240.44;;;3.68;42.97
56176;BME280;63065;51.082;17.016;2023-03-04T04:40:00;100250.31;;;3.98;42.63
56176;BME280;63065;51.082;17.016;2023-03-04T04:42:26;100238.40;;;3.76;42.44
56176;BME280;63065;51.082;17.016;2023-03-04T04:44:52;100230.93;;;3.79;42.35
56176;BME280;63065;51.082;17.016;2023-03-04T04:47:18;100224.81;;;3.98;42.51
56176;BME280;63065;51.082;17.016;2023-03-04T04:49:42;100221.28;;;3.69;42.65
56176;BME280;63065;51.082;17.016;2023-03-04T04:52:08;100221.86;;;4.40;41.78
56176;BME280;63065;51.082;17.016;2023-03-04T04:54:33;100206.35;;;4.12;41.61
56176;BME280;63065;51.082;17.016;2023-03-04T04:56:59;100200.58;;;4.07;42.19
56176;BME280;63065;51.082;17.016;2023-03-04T04:59:25;100194.60;;;4.36;41.14
56176;BME280;63065;51.082;17.016;2023-03-04T05:01:50;100194.87;;;4.73;40.84
56176;BME280;63065;51.082;17.016;2023-03-04T05:04:16;100190.76;;;4.22;41.23
56176;BME280;63065;51.082;17.016;2023-03-04T05:06:41;100189.34;;;4.48;41.20
56176;BME280;63065;51.082;17.016;2023-03-04T05:09:06;100189.46;;;4.15;41.61
56176;BME280;63065;51.082;17.016;2023-03-04T05:11:31;100181.72;;;3.53;42.71
56176;BME280;63065;51.082;17.016;2023-03-04T05:13:57;100182.51;;;4.33;42.01
56176;BME280;63065;51.082;17.016;2023-03-04T05:16:22;100178.70;;;3.94;41.96
56176;BME280;63065;51.082;17.016;2023-03-04T05:18:47;100181.67;;;4.12;41.87
56176;BME280;63065;51.082;17.016;2023-03-04T05:21:12;100179.33;;;4.30;41.67
56176;BME280;63065;51.082;17.016;2023-03-04T05:23:39;100186.85;;;4.86;40.53
56176;BME280;63065;51.082;17.016;2023-03-04T05:26:05;100188.71;;;4.46;40.56
56176;BME280;63065;51.082;17.016;2023-03-04T05:28:29;100197.83;;;4.09;41.29
56176;BME280;63065;51.082;17.016;2023-03-04T05:30:54;100187.75;;;4.40;41.13
56176;BME280;63065;51.082;17.016;2023-03-04T05:33:20;100187.76;;;4.49;41.70
56176;BME280;63065;51.082;17.016;2023-03-04T05:35:46;100196.98;;;4.92;40.54
56176;BME280;63065;51.082;17.016;2023-03-04T05:38:13;100191.59;;;5.03;40.35
56176;BME280;63065;51.082;17.016;2023-03-04T05:40:36;100193.70;;;4.63;41.08
56176;BME280;63065;51.082;17.016;2023-03-04T05:43:01;100192.58;;;4.76;40.74
56176;BME280;63065;51.082;17.016;2023-03-04T05:45:27;100190.58;;;4.31;40.69
56176;BME280;63065;51.082;17.016;2023-03-04T05:47:53;100190.24;;;4.58;40.59
56176;BME280;63065;51.082;17.016;2023-03-04T05:50:19;100190.21;;;5.00;39.96
56176;BME280;63065;51.082;17.016;2023-03-04T05:52:42;100193.95;;;5.17;39.73
56176;BME280;63065;51.082;17.016;2023-03-04T05:55:08;100186.09;;;5.32;39.94
56176;BME280;63065;51.082;17.016;2023-03-04T05:57:33;100187.34;;;4.66;41.14
56176;BME280;63065;51.082;17.016;2023-03-04T05:59:59;100188.42;;;4.18;41.87
56176;BME280;63065;51.082;17.016;2023-03-04T06:02:24;100190.43;;;4.54;41.77
56176;BME280;63065;51.082;17.016;2023-03-04T06:04:49;100193.29;;;4.22;41.94
56176;BME280;63065;51.082;17.016;2023-03-04T06:07:14;100193.07;;;4.55;41.18
56176;BME280;63065;51.082;17.016;2023-03-04T06:09:39;100190.44;;;4.40;41.07
56176;BME280;63065;51.082;17.016;2023-03-04T06:12:06;100189.53;;;4.06;41.50
56176;BME280;63065;51.082;17.016;2023-03-04T06:14:31;100198.83;;;4.44;41.84
56176;BME280;63065;51.082;17.016;2023-03-04T06:16:56;100198.12;;;4.56;41.12
56176;BME280;63065;51.082;17.016;2023-03-04T06:19:21;100191.46;;;4.25;41.27
56176;BME280;63065;51.082;17.016;2023-03-04T06:21:46;100196.05;;;4.40;41.77
56176;BME280;63065;51.082;17.016;2023-03-04T06:24:12;100194.89;;;4.82;41.28
56176;BME280;63065;51.082;17.016;2023-03-04T06:26:37;100194.99;;;4.01;41.15
56176;BME280;63065;51.082;17.016;2023-03-04T06:29:04;100198.53;;;4.52;41.07
56176;BME280;63065;51.082;17.016;2023-03-04T06:31:28;100199.99;;;4.17;41.98
56176;BME280;63065;51.082;17.016;2023-03-04T06:33:54;100199.88;;;3.85;42.34
56176;BME280;63065;51.082;17.016;2023-03-04T06:36:20;100209.23;;;4.30;41.85
56176;BME280;63065;51.082;17.016;2023-03-04T06:38:45;100212.82;;;3.56;43.06
56176;BME280;63065;51.082;17.016;2023-03-04T06:41:12;100208.18;;;4.06;42.45
56176;BME280;63065;51.082;17.016;2023-03-04T06:43:37;100214.77;;;4.03;42.21
56176;BME280;63065;51.082;17.016;2023-03-04T06:46:01;100217.29;;;3.85;41.92
56176;BME280;63065;51.082;17.016;2023-03-04T06:48:27;100221.37;;;4.68;41.44
56176;BME280;63065;51.082;17.016;2023-03-04T06:50:52;100216.85;;;4.64;41.64
56176;BME280;63065;51.082;17.016;2023-03-04T06:53:17;100226.42;;;4.01;42.37
56176;BME280;63065;51.082;17.016;2023-03-04T06:55:42;100227.47;;;3.27;43.56
56176;BME280;63065;51.082;17.016;2023-03-04T06:58:08;100219.57;;;4.10;42.43
56176;BME280;63065;51.082;17.016;2023-03-04T07:00:35;100228.35;;;2.66;44.49
56176;BME280;63065;51.082;17.016;2023-03-04T07:02:59;100230.80;;;3.30;44.28
56176;BME280;63065;51.082;17.016;2023-03-04T07:05:25;100233.14;;;2.70;44.61
56176;BME280;63065;51.082;17.016;2023-03-04T07:07:51;100232.20;;;3.97;43.20
56176;BME280;63065;51.082;17.016;2023-03-04T07:10:17;100224.47;;;3.89;42.74
56176;BME280;63065;51.082;17.016;2023-03-04T07:12:42;100227.22;;;3.63;43.30
56176;BME280;63065;51.082;17.016;2023-03-04T07:15:08;100225.50;;;4.21;42.68
56176;BME280;63065;51.082;17.016;2023-03-04T07:17:33;100229.85;;;3.93;41.71
56176;BME280;63065;51.082;17.016;2023-03-04T07:19:59;100232.09;;;4.09;42.18
56176;BME280;63065;51.082;17.016;2023-03-04T07:22:24;100235.93;;;5.07;41.07
56176;BME280;63065;51.082;17.016;2023-03-04T07:24:49;100238.49;;;5.83;39.62
56176;BME280;63065;51.082;17.016;2023-03-04T07:27:15;100239.62;;;5.21;40.51
56176;BME280;63065;51.082;17.016;2023-03-04T07:29:40;100238.72;;;5.72;40.00
56176;BME280;63065;51.082;17.016;2023-03-04T07:32:07;100241.12;;;4.64;41.21
56176;BME280;63065;51.082;17.016;2023-03-04T07:34:31;100235.71;;;5.40;40.28
56176;BME280;63065;51.082;17.016;2023-03-04T07:36:56;100240.05;;;5.50;40.30
56176;BME280;63065;51.082;17.016;2023-03-04T07:39:22;100235.72;;;5.98;39.91
56176;BME280;63065;51.082;17.016;2023-03-04T07:41:47;100239.96;;;4.88;41.21
56176;BME280;63065;51.082;17.016;2023-03-04T07:44:13;100233.04;;;5.46;40.87
56176;BME280;63065;51.082;17.016;2023-03-04T07:46:38;100232.41;;;5.02;41.19
56176;BME280;63065;51.082;17.016;2023-03-04T07:49:03;100226.60;;;4.42;42.29
56176;BME280;63065;51.082;17.016;2023-03-04T07:51:29;100223.22;;;4.88;42.17
56176;BME280;63065;51.082;17.016;2023-03-04T07:53:56;100226.20;;;4.66;42.39
56176;BME280;63065;51.082;17.016;2023-03-04T07:56:21;100226.99;;;5.75;41.56
56176;BME280;63065;51.082;17.016;2023-03-04T07:58:45;100224.53;;;5.90;40.72
56176;BME280;63065;51.082;17.016;2023-03-04T08:01:12;100226.06;;;5.95;41.12
56176;BME280;63065;51.082;17.016;2023-03-04T08:03:36;100221.49;;;5.81;40.89
56176;BME280;63065;51.082;17.016;2023-03-04T08:06:04;100220.82;;;5.40;42.03
56176;BME280;63065;51.082;17.016;2023-03-04T08:08:27;100214.39;;;5.94;41.43
56176;BME280;63065;51.082;17.016;2023-03-04T08:10:53;100211.84;;;5.12;42.28
56176;BME280;63065;51.082;17.016;2023-03-04T08:13:18;100213.55;;;5.79;41.93
56176;BME280;63065;51.082;17.016;2023-03-04T08:15:44;100216.32;;;5.56;41.54
56176;BME280;63065;51.082;17.016;2023-03-04T08:18:09;100213.44;;;5.74;41.91
56176;BME280;63065;51.082;17.016;2023-03-04T08:20:35;100211.99;;;5.73;42.31
56176;BME280;63065;51.082;17.016;2023-03-04T08:23:00;100209.17;;;5.44;41.79
56176;BME280;63065;51.082;17.016;2023-03-04T08:25:26;100200.94;;;5.74;41.77
56176;BME280;63065;51.082;17.016;2023-03-04T08:27:51;100207.68;;;5.77;42.23
56176;BME280;63065;51.082;17.016;2023-03-04T08:30:17;100205.50;;;5.86;41.65
56176;BME280;63065;51.082;17.016;2023-03-04T08:32:42;100201.76;;;6.13;41.59
56176;BME280;63065;51.082;17.016;2023-03-04T08:35:08;100203.41;;;6.27;42.26
56176;BME280;63065;51.082;17.016;2023-03-04T08:37:33;100206.40;;;6.07;42.43
56176;BME280;63065;51.082;17.016;2023-03-04T08:39:59;100204.18;;;5.74;42.49
56176;BME280;63065;51.082;17.016;2023-03-04T08:42:24;100199.32;;;6.02;42.04
56176;BME280;63065;51.082;17.016;2023-03-04T08:44:50;100203.66;;;6.02;42.54
56176;BME280;63065;51.082;17.016;2023-03-04T08:47:15;100193.15;;;6.21;41.67
56176;BME280;63065;51.082;17.016;2023-03-04T08:49:40;100191.76;;;6.72;40.79
56176;BME280;63065;51.082;17.016;2023-03-04T08:52:05;100188.96;;;6.29;41.84
56176;BME280;63065;51.082;17.016;2023-03-04T08:54:31;100189.96;;;6.61;41.08
56176;BME280;63065;51.082;17.016;2023-03-04T08:56:55;100190.35;;;6.81;40.69
56176;BME280;63065;51.082;17.016;2023-03-04T08:59:21;100189.77;;;6.60;41.37
56176;BME280;63065;51.082;17.016;2023-03-04T09:01:47;100196.43;;;6.62;41.09
56176;BME280;63065;51.082;17.016;2023-03-04T09:04:12;100195.83;;;6.52;41.51
56176;BME280;63065;51.082;17.016;2023-03-04T09:06:37;100189.03;;;6.50;41.41
56176;BME280;63065;51.082;17.016;2023-03-04T09:09:03;100185.94;;;6.43;41.76
56176;BME280;63065;51.082;17.016;2023-03-04T09:11:28;100190.79;;;6.50;41.48
56176;BME280;63065;51.082;17.016;2023-03-04T09:13:54;100200.54;;;6.25;41.74
56176;BME280;63065;51.082;17.016;2023-03-04T09:16:20;100188.17;;;6.82;41.07
56176;BME280;63065;51.082;17.016;2023-03-04T09:18:44;100183.75;;;6.51;41.46
56176;BME280;63065;51.082;17.016;2023-03-04T09:21:10;100188.62;;;6.36;41.76
56176;BME280;63065;51.082;17.016;2023-03-04T09:23:36;100189.62;;;6.94;41.59
56176;BME280;63065;51.082;17.016;2023-03-04T09:26:00;100184.72;;;6.71;40.79
56176;BME280;63065;51.082;17.016;2023-03-04T09:28:26;100189.53;;;7.43;40.49
56176;BME280;63065;51.082;17.016;2023-03-04T09:30:51;100184.22;;;6.41;41.35
56176;BME280;63065;51.082;17.016;2023-03-04T09:33:16;100190.01;;;6.35;41.57
56176;BME280;63065;51.082;17.016;2023-03-04T09:35:41;100192.95;;;6.87;41.25
56176;BME280;63065;51.082;17.016;2023-03-04T09:38:06;100187.67;;;6.84;41.70
56176;BME280;63065;51.082;17.016;2023-03-04T09:40:36;100189.68;;;6.57;42.30
56176;BME280;63065;51.082;17.016;2023-03-04T09:42:59;100182.21;;;6.98;41.52
56176;BME280;63065;51.082;17.016;2023-03-04T09:45:26;100184.55;;;6.50;42.62
56176;BME280;63065;51.082;17.016;2023-03-04T09:47:48;100176.57;;;6.97;41.37
56176;BME280;63065;51.082;17.016;2023-03-04T09:50:13;100180.00;;;7.35;40.91
56176;BME280;63065;51.082;17.016;2023-03-04T09:52:48;100173.10;;;7.14;41.36
56176;BME280;63065;51.082;17.016;2023-03-04T09:55:13;100172.21;;;6.82;42.68
56176;BME280;63065;51.082;17.016;2023-03-04T09:57:39;100170.08;;;6.85;42.73
56176;BME280;63065;51.082;17.016;2023-03-04T10:00:03;100172.24;;;6.53;42.94
56176;BME280;63065;51.082;17.016;2023-03-04T10:02:27;100173.13;;;6.56;43.23
56176;BME280;63065;51.082;17.016;2023-03-04T10:04:49;100169.80;;;6.28;44.10
56176;BME280;63065;51.082;17.016;2023-03-04T10:07:16;100169.87;;;6.41;44.34
56176;BME280;63065;51.082;17.016;2023-03-04T10:09:44;100160.67;;;6.72;42.75
56176;BME280;63065;51.082;17.016;2023-03-04T10:12:06;100161.25;;;7.07;42.94
56176;BME280;63065;51.082;17.016;2023-03-04T10:14:34;100157.36;;;7.50;42.18
56176;BME280;63065;51.082;17.016;2023-03-04T10:16:58;100158.12;;;7.14;42.80
56176;BME280;63065;51.082;17.016;2023-03-04T10:19:28;100155.75;;;7.29;43.32
56176;BME280;63065;51.082;17.016;2023-03-04T10:21:45;100154.13;;;6.55;44.68
56176;BME280;63065;51.082;17.016;2023-03-04T10:24:11;100149.54;;;7.00;43.51
56176;BME280;63065;51.082;17.016;2023-03-04T10:26:37;100143.73;;;7.48;43.49
56176;BME280;63065;51.082;17.016;2023-03-04T10:29:00;100147.84;;;7.30;43.67
56176;BME280;63065;51.082;17.016;2023-03-04T10:31:30;100142.89;;;7.23;43.99
56176;BME280;63065;51.082;17.016;2023-03-04T10:33:52;100139.29;;;7.21;44.37
56176;BME280;63065;51.082;17.016;2023-03-04T10:36:29;100135.89;;;7.22;44.39
56176;BME280;63065;51.082;17.016;2023-03-04T10:38:44;100135.85;;;7.13;44.42
56176;BME280;63065;51.082;17.016;2023-03-04T10:41:12;100128.54;;;7.01;44.63
56176;BME280;63065;51.082;17.016;2023-03-04T10:43:33;100126.31;;;5.83;45.48
56176;BME280;63065;51.082;17.016;2023-03-04T10:45:58;100123.97;;;5.95;46.37
56176;BME280;63065;51.082;17.016;2023-03-04T10:48:27;100121.92;;;6.40;45.60
56176;BME280;63065;51.082;17.016;2023-03-04T10:50:50;100115.25;;;6.69;45.49
56176;BME280;63065;51.082;17.016;2023-03-04T10:53:24;100119.22;;;7.39;44.35
56176;BME280;63065;51.082;17.016;2023-03-04T10:55:43;100115.86;;;7.51;43.91
56176;BME280;63065;51.082;17.016;2023-03-04T10:58:12;100111.54;;;7.64;43.31
56176;BME280;63065;51.082;17.016;2023-03-04T11:00:32;100117.00;;;7.66;43.55
56176;BME280;63065;51.082;17.016;2023-03-04T11:05:23;100108.50;;;8.35;41.95
56176;BME280;63065;51.082;17.016;2023-03-04T11:07:49;100114.11;;;7.57;43.16
56176;BME280;63065;51.082;17.016;2023-03-04T11:10:16;100099.66;;;8.21;41.88
56176;BME280;63065;51.082;17.016;2023-03-04T11:12:38;100106.27;;;8.35;41.45
56176;BME280;63065;51.082;17.016;2023-03-04T11:17:40;100110.27;;;7.20;43.19
56176;BME280;63065;51.082;17.016;2023-03-04T11:19:58;100104.63;;;7.10;43.37
56176;BME280;63065;51.082;17.016;2023-03-04T11:22:22;100109.22;;;7.32;42.81
56176;BME280;63065;51.082;17.016;2023-03-04T11:24:50;100102.17;;;6.58;43.42
56176;BME280;63065;51.082;17.016;2023-03-04T11:27:16;100103.22;;;7.01;43.84
56176;BME280;63065;51.082;17.016;2023-03-04T11:29:42;100108.35;;;7.28;42.98
56176;BME280;63065;51.082;17.016;2023-03-04T11:32:07;100106.25;;;7.06;42.83
56176;BME280;63065;51.082;17.016;2023-03-04T11:34:33;100104.35;;;7.45;42.51
56176;BME280;63065;51.082;17.016;2023-03-04T11:36:56;100105.09;;;6.77;43.50
56176;BME280;63065;51.082;17.016;2023-03-04T11:39:23;100106.81;;;7.35;42.11
56176;BME280;63065;51.082;17.016;2023-03-04T11:41:50;100092.17;;;8.18;42.28
56176;BME280;63065;51.082;17.016;2023-03-04T11:44:12;100092.40;;;7.89;41.95
56176;BME280;63065;51.082;17.016;2023-03-04T11:46:44;100095.64;;;8.43;41.74
56176;BME280;63065;51.082;17.016;2023-03-04T11:49:11;100086.58;;;8.51;40.64
56176;BME280;63065;51.082;17.016;2023-03-04T11:51:31;100083.52;;;7.70;42.37
56176;BME280;63065;51.082;17.016;2023-03-04T11:54:02;100085.34;;;7.28;42.23
56176;BME280;63065;51.082;17.016;2023-03-04T11:56:26;100094.77;;;7.44;43.29
56176;BME280;63065;51.082;17.016;2023-03-04T11:58:49;100085.21;;;7.09;43.54
56176;BME280;63065;51.082;17.016;2023-03-04T12:01:08;100079.91;;;7.70;42.42
56176;BME280;63065;51.082;17.016;2023-03-04T12:03:45;100081.00;;;7.91;42.18
56176;BME280;63065;51.082;17.016;2023-03-04T12:06:02;100076.11;;;7.61;43.45
56176;BME280;63065;51.082;17.016;2023-03-04T12:08:33;100076.82;;;7.50;42.95
56176;BME280;63065;51.082;17.016;2023-03-04T12:10:57;100073.23;;;8.00;42.43
56176;BME280;63065;51.082;17.016;2023-03-04T12:15:46;100071.83;;;8.23;42.02
56176;BME280;63065;51.082;17.016;2023-03-04T12:18:19;100073.63;;;8.21;41.93
56176;BME280;63065;51.082;17.016;2023-03-04T12:20:40;100063.27;;;8.03;41.44
56176;BME280;63065;51.082;17.016;2023-03-04T12:23:06;100061.51;;;8.04;41.38
56176;BME280;63065;51.082;17.016;2023-03-04T12:25:33;100064.61;;;8.72;40.39
56176;BME280;63065;51.082;17.016;2023-03-04T12:27:56;100062.28;;;8.79;41.12
56176;BME280;63065;51.082;17.016;2023-03-04T12:30:20;100055.14;;;8.60;40.59
56176;BME280;63065;51.082;17.016;2023-03-04T12:32:45;100053.35;;;8.17;41.73
56176;BME280;63065;51.082;17.016;2023-03-04T12:35:17;100055.02;;;8.08;42.05
56176;BME280;63065;51.082;17.016;2023-03-04T12:37:42;100055.53;;;7.80;42.41
56176;BME280;63065;51.082;17.016;2023-03-04T12:40:07;100049.66;;;8.31;41.72
56176;BME280;63065;51.082;17.016;2023-03-04T12:42:27;100053.40;;;8.50;42.15
56176;BME280;63065;51.082;17.016;2023-03-04T12:44:54;100045.38;;;7.77;42.20
56176;BME280;63065;51.082;17.016;2023-03-04T12:47:22;100049.47;;;7.93;42.26